createdAt,value
2022-11-22T00:00:15.026Z,47.40
2022-11-22T00:10:15.046Z,39.10
2022-11-22T00:20:15.061Z,52.10
2022-11-22T00:30:15.096Z,46.20
2022-11-22T00:40:15.085Z,53.80
2022-11-22T00:50:15.030Z,36.10
2022-11-22T01:00:15.054Z,34.10
2022-11-22T01:10:15.030Z,60.10
2022-11-22T01:20:15.148Z,40.70
2022-11-22T01:30:15.053Z,57.30
2022-11-22T01:40:15.076Z,53.20
2022-11-22T01:50:15.062Z,47.80
2022-11-22T02:00:15.059Z,28.10
2022-11-22T02:10:15.055Z,46.60
2022-11-22T02:20:15.054Z,49.00
2022-11-22T02:30:15.077Z,38.30
2022-11-22T02:40:15.086Z,40.30
2022-11-22T02:50:15.060Z,51.00
2022-11-22T03:00:15.108Z,50.60
2022-11-22T03:10:15.080Z,49.00
2022-11-22T03:20:15.105Z,70.90
2022-11-22T03:30:15.084Z,52.10
2022-11-22T03:40:15.114Z,71.70
2022-11-22T03:50:15.097Z,31.10
2022-11-22T04:00:15.100Z,68.30
2022-11-22T04:10:17.751Z,95.70
2022-11-22T04:20:15.152Z,107.00
2022-11-22T04:40:15.120Z,73.60
2022-11-22T04:50:15.108Z,114.30
2022-11-22T05:00:15.133Z,106.10
2022-11-22T05:10:15.258Z,117.60
2022-11-22T05:20:15.133Z,57.80
2022-11-22T05:30:15.136Z,164.70
2022-11-22T05:50:15.154Z,116.30
2022-11-22T06:00:15.138Z,80.30
2022-11-22T06:10:15.148Z,139.60
2022-11-22T06:20:15.160Z,117.40
2022-11-22T06:30:15.133Z,147.60
2022-11-22T06:40:15.256Z,112.10
2022-11-22T06:50:20.306Z,116.40
2022-11-22T07:00:15.148Z,164.10
2022-11-22T07:10:15.153Z,111.50
2022-11-22T07:20:15.253Z,63.00
2022-11-22T07:30:15.175Z,96.00
2022-11-22T07:40:15.166Z,77.40
2022-11-22T07:50:15.175Z,70.70
2022-11-22T08:00:15.167Z,100.30
2022-11-22T08:10:15.186Z,148.50
2022-11-22T08:20:15.175Z,103.50
2022-11-22T08:30:15.181Z,96.90
2022-11-22T08:40:15.174Z,99.40
2022-11-22T08:50:15.184Z,89.00
2022-11-22T09:00:16.201Z,73.60
2022-11-22T09:10:15.186Z,63.20
2022-11-22T09:20:15.195Z,47.60
2022-11-22T09:30:15.209Z,62.60
2022-11-22T09:40:15.304Z,69.00
2022-11-22T09:50:15.208Z,59.40
2022-11-22T10:00:15.234Z,94.50
2022-11-22T10:10:15.211Z,62.00
2022-11-22T10:20:15.220Z,61.10
2022-11-22T10:30:15.218Z,70.40
2022-11-22T10:40:15.220Z,67.30
2022-11-22T10:50:15.234Z,57.50
2022-11-22T11:00:15.237Z,50.80
2022-11-22T11:10:23.847Z,51.40
2022-11-22T11:20:15.367Z,43.30
2022-11-22T11:30:15.340Z,65.90
2022-11-22T11:40:15.258Z,46.00
2022-11-22T11:50:19.566Z,67.90
2022-11-22T12:00:15.347Z,88.00
2022-11-22T12:10:15.234Z,77.20
2022-11-22T12:20:15.255Z,66.50
2022-11-22T12:30:15.241Z,69.40
2022-11-22T12:40:15.280Z,64.70
2022-11-22T12:50:15.281Z,72.90
2022-11-22T13:00:15.267Z,65.40
2022-11-22T13:10:15.292Z,62.40
2022-11-22T13:20:15.259Z,62.70
2022-11-22T13:30:15.275Z,59.10
2022-11-22T13:40:15.291Z,62.30
2022-11-22T13:50:15.312Z,116.60
2022-11-22T14:00:15.363Z,65.80
2022-11-22T14:10:15.291Z,69.40
2022-11-22T14:20:15.305Z,68.70
2022-11-22T14:30:15.317Z,88.60
2022-11-22T14:40:15.314Z,86.00
2022-11-22T14:50:15.328Z,71.70
2022-11-22T15:00:15.327Z,67.80
2022-11-22T15:10:15.409Z,79.50
2022-11-22T16:00:15.381Z,67.50
2022-11-22T16:10:15.326Z,68.10
2022-11-22T16:20:15.339Z,71.40
2022-11-22T16:30:18.220Z,66.40
2022-11-22T16:40:15.336Z,64.40
2022-11-22T16:50:15.346Z,65.70
2022-11-22T17:00:15.347Z,64.50
2022-11-22T17:10:15.372Z,65.40
2022-11-22T17:20:15.356Z,69.20
2022-11-22T17:30:15.361Z,66.20
2022-11-22T17:40:15.439Z,64.40
2022-11-22T17:50:15.352Z,63.80
2022-11-22T18:00:15.358Z,71.60
2022-11-22T18:10:15.370Z,66.40
2022-11-22T18:20:15.387Z,76.20
2022-11-22T18:30:15.357Z,70.50
2022-11-22T18:40:15.404Z,68.40
2022-11-22T19:00:15.375Z,70.90
2022-11-22T19:10:15.381Z,82.90
2022-11-22T19:20:39.165Z,79.10
2022-11-22T19:30:15.509Z,89.50
2022-11-22T19:40:15.417Z,78.90
2022-11-22T19:50:15.431Z,83.70
2022-11-22T20:00:15.422Z,65.10
2022-11-22T20:10:15.438Z,78.40
2022-11-22T20:20:15.449Z,68.00
2022-11-22T20:30:15.523Z,68.70
2022-11-22T20:40:15.445Z,72.10
2022-11-22T20:50:15.440Z,75.70
2022-11-22T21:00:15.427Z,75.40
2022-11-22T21:10:15.428Z,70.70
2022-11-22T21:20:15.432Z,80.70
2022-11-22T21:30:15.434Z,86.40
2022-11-22T21:40:15.436Z,82.30
2022-11-22T21:50:15.463Z,85.00
2022-11-22T22:00:15.449Z,84.20
2022-11-22T22:10:15.449Z,89.40
2022-11-22T22:30:15.480Z,90.50
2022-11-22T22:40:15.447Z,86.30
2022-11-22T22:50:15.462Z,87.90
2022-11-22T23:00:15.469Z,87.30
2022-11-22T23:10:15.468Z,83.70
2022-11-22T23:20:15.463Z,77.40
2022-11-22T23:30:15.481Z,82.60
2022-11-22T23:40:15.484Z,67.90
2022-11-22T23:50:15.479Z,69.50
